sensor_id;sensor_type;location;lat;lon;timestamp;temperature;humidity
7844;DHT22;3967;48.702;9.326;2022-08-20T00:00:47;20.40;99.90
7844;DHT22;3967;48.702;9.326;2022-08-20T00:03:24;20.40;99.90
7844;DHT22;3967;48.702;9.326;2022-08-20T00:06:09;20.30;99.90
7844;DHT22;3967;48.702;9.326;2022-08-20T00:08:37;20.30;99.90
7844;DHT22;3967;48.702;9.326;2022-08-20T00:11:05;20.20;99.90
7844;DHT22;3967;48.702;9.326;2022-08-20T00:13:40;20.20;99.90
7844;DHT22;3967;48.702;9.326;2022-08-20T00:16:08;20.10;99.90
7844;DHT22;3967;48.702;9.326;2022-08-20T00:18:36;20.20;99.90
7844;DHT22;3967;48.702;9.326;2022-08-20T00:21:05;20.20;99.90
7844;DHT22;3967;48.702;9.326;2022-08-20T00:23:43;20.20;99.90
7844;DHT22;3967;48.702;9.326;2022-08-20T00:26:12;20.20;99.90
7844;DHT22;3967;48.702;9.326;2022-08-20T00:28:39;20.20;99.90
7844;DHT22;3967;48.702;9.326;2022-08-20T00:31:10;20.10;99.90
7844;DHT22;3967;48.702;9.326;2022-08-20T00:33:38;20.20;99.90
7844;DHT22;3967;48.702;9.326;2022-08-20T00:36:07;20.20;99.90
7844;DHT22;3967;48.702;9.326;2022-08-20T00:38:40;20.20;99.90
7844;DHT22;3967;48.702;9.326;2022-08-20T00:41:10;20.20;99.90
7844;DHT22;3967;48.702;9.326;2022-08-20T00:43:43;20.20;99.90
7844;DHT22;3967;48.702;9.326;2022-08-20T00:48:41;20.20;99.90
7844;DHT22;3967;48.702;9.326;2022-08-20T00:51:13;20.20;99.90
7844;DHT22;3967;48.702;9.326;2022-08-20T00:53:42;20.10;99.90
7844;DHT22;3967;48.702;9.326;2022-08-20T00:56:10;20.10;99.90
7844;DHT22;3967;48.702;9.326;2022-08-20T00:58:39;20.20;99.90
7844;DHT22;3967;48.702;9.326;2022-08-20T01:01:08;20.10;99.90
7844;DHT22;3967;48.702;9.326;2022-08-20T01:03:35;20.10;99.90
7844;DHT22;3967;48.702;9.326;2022-08-20T01:06:02;20.10;99.90
7844;DHT22;3967;48.702;9.326;2022-08-20T01:08:29;20.10;99.90
7844;DHT22;3967;48.702;9.326;2022-08-20T01:10:56;20.10;99.90
7844;DHT22;3967;48.702;9.326;2022-08-20T01:13:36;20.10;99.90
7844;DHT22;3967;48.702;9.326;2022-08-20T01:16:11;20.20;99.90
7844;DHT22;3967;48.702;9.326;2022-08-20T01:18:44;20.10;99.90
7844;DHT22;3967;48.702;9.326;2022-08-20T01:21:11;20.20;99.90
7844;DHT22;3967;48.702;9.326;2022-08-20T01:26:26;20.20;99.90
7844;DHT22;3967;48.702;9.326;2022-08-20T01:31:32;20.10;99.90
7844;DHT22;3967;48.702;9.326;2022-08-20T01:34:01;20.10;99.90
7844;DHT22;3967;48.702;9.326;2022-08-20T01:36:41;20.00;99.90
7844;DHT22;3967;48.702;9.326;2022-08-20T01:39:20;19.90;99.90
7844;DHT22;3967;48.702;9.326;2022-08-20T01:42:15;20.00;99.90
7844;DHT22;3967;48.702;9.326;2022-08-20T01:44:45;20.00;99.90
7844;DHT22;3967;48.702;9.326;2022-08-20T01:47:26;19.90;99.90
7844;DHT22;3967;48.702;9.326;2022-08-20T01:50:10;19.90;99.90
7844;DHT22;3967;48.702;9.326;2022-08-20T01:53:06;19.90;99.90
7844;DHT22;3967;48.702;9.326;2022-08-20T01:55:35;19.90;99.90
7844;DHT22;3967;48.702;9.326;2022-08-20T01:58:04;19.90;99.90
7844;DHT22;3967;48.702;9.326;2022-08-20T02:00:31;19.80;99.90
7844;DHT22;3967;48.702;9.326;2022-08-20T02:03:01;19.70;99.90
7844;DHT22;3967;48.702;9.326;2022-08-20T02:05:29;19.70;99.90
7844;DHT22;3967;48.702;9.326;2022-08-20T02:07:56;19.80;99.90
7844;DHT22;3967;48.702;9.326;2022-08-20T02:10:23;19.70;99.90
7844;DHT22;3967;48.702;9.326;2022-08-20T02:12:50;19.80;99.90
7844;DHT22;3967;48.702;9.326;2022-08-20T02:15:18;19.70;99.90
7844;DHT22;3967;48.702;9.326;2022-08-20T02:18:06;19.70;99.90
7844;DHT22;3967;48.702;9.326;2022-08-20T02:20:34;19.70;99.90
7844;DHT22;3967;48.702;9.326;2022-08-20T02:23:02;19.70;99.90
7844;DHT22;3967;48.702;9.326;2022-08-20T02:25:31;19.70;99.90
7844;DHT22;3967;48.702;9.326;2022-08-20T02:28:00;19.70;99.90
7844;DHT22;3967;48.702;9.326;2022-08-20T02:30:34;19.70;99.90
7844;DHT22;3967;48.702;9.326;2022-08-20T02:33:04;19.70;99.90
7844;DHT22;3967;48.702;9.326;2022-08-20T02:35:33;19.80;99.90
7844;DHT22;3967;48.702;9.326;2022-08-20T02:38:00;19.80;99.90
7844;DHT22;3967;48.702;9.326;2022-08-20T02:40:29;19.80;99.90
7844;DHT22;3967;48.702;9.326;2022-08-20T02:42:58;19.80;99.90
7844;DHT22;3967;48.702;9.326;2022-08-20T02:45:26;19.70;99.90
7844;DHT22;3967;48.702;9.326;2022-08-20T02:47:53;19.70;99.90
7844;DHT22;3967;48.702;9.326;2022-08-20T02:50:23;19.60;99.90
7844;DHT22;3967;48.702;9.326;2022-08-20T02:52:51;19.60;99.90
7844;DHT22;3967;48.702;9.326;2022-08-20T02:55:18;19.50;99.90
7844;DHT22;3967;48.702;9.326;2022-08-20T02:57:54;19.50;99.90
7844;DHT22;3967;48.702;9.326;2022-08-20T03:00:25;19.50;99.90
7844;DHT22;3967;48.702;9.326;2022-08-20T03:02:52;19.50;99.90
7844;DHT22;3967;48.702;9.326;2022-08-20T03:05:19;19.50;99.90
7844;DHT22;3967;48.702;9.326;2022-08-20T03:07:49;19.50;99.90
7844;DHT22;3967;48.702;9.326;2022-08-20T03:10:16;19.40;99.90
7844;DHT22;3967;48.702;9.326;2022-08-20T03:12:43;19.40;99.90
7844;DHT22;3967;48.702;9.326;2022-08-20T03:15:10;19.50;99.90
7844;DHT22;3967;48.702;9.326;2022-08-20T03:17:43;19.40;99.90
7844;DHT22;3967;48.702;9.326;2022-08-20T03:20:10;19.50;99.90
7844;DHT22;3967;48.702;9.326;2022-08-20T03:22:38;19.40;99.90
7844;DHT22;3967;48.702;9.326;2022-08-20T03:25:06;19.40;99.90
7844;DHT22;3967;48.702;9.326;2022-08-20T03:27:33;19.40;99.90
7844;DHT22;3967;48.702;9.326;2022-08-20T03:30:04;19.40;99.90
7844;DHT22;3967;48.702;9.326;2022-08-20T03:32:31;19.40;99.90
7844;DHT22;3967;48.702;9.326;2022-08-20T03:34:58;19.30;99.90
7844;DHT22;3967;48.702;9.326;2022-08-20T03:37:29;19.30;99.90
7844;DHT22;3967;48.702;9.326;2022-08-20T03:39:56;19.30;99.90
7844;DHT22;3967;48.702;9.326;2022-08-20T03:42:23;19.20;99.90
7844;DHT22;3967;48.702;9.326;2022-08-20T03:44:50;19.10;99.90
7844;DHT22;3967;48.702;9.326;2022-08-20T03:47:25;19.20;99.90
7844;DHT22;3967;48.702;9.326;2022-08-20T03:49:56;19.10;99.90
7844;DHT22;3967;48.702;9.326;2022-08-20T03:52:22;19.10;99.90
7844;DHT22;3967;48.702;9.326;2022-08-20T03:54:49;19.10;99.90
7844;DHT22;3967;48.702;9.326;2022-08-20T03:57:16;19.10;99.90
7844;DHT22;3967;48.702;9.326;2022-08-20T03:59:43;19.10;99.90
7844;DHT22;3967;48.702;9.326;2022-08-20T04:02:11;19.20;99.90
7844;DHT22;3967;48.702;9.326;2022-08-20T04:04:39;19.20;99.90
7844;DHT22;3967;48.702;9.326;2022-08-20T04:07:15;19.20;99.90
7844;DHT22;3967;48.702;9.326;2022-08-20T04:09:42;19.20;99.90
7844;DHT22;3967;48.702;9.326;2022-08-20T04:12:09;19.20;99.90
7844;DHT22;3967;48.702;9.326;2022-08-20T04:14:39;19.20;99.90
7844;DHT22;3967;48.702;9.326;2022-08-20T04:17:08;19.20;99.90
7844;DHT22;3967;48.702;9.326;2022-08-20T04:19:36;19.10;99.90
7844;DHT22;3967;48.702;9.326;2022-08-20T04:22:04;19.00;99.90
7844;DHT22;3967;48.702;9.326;2022-08-20T04:24:31;18.90;99.90
7844;DHT22;3967;48.702;9.326;2022-08-20T04:26:59;18.70;99.90
7844;DHT22;3967;48.702;9.326;2022-08-20T04:29:28;18.70;99.90
7844;DHT22;3967;48.702;9.326;2022-08-20T04:31:58;18.70;99.90
7844;DHT22;3967;48.702;9.326;2022-08-20T04:34:28;18.80;99.90
7844;DHT22;3967;48.702;9.326;2022-08-20T04:36:55;18.90;99.90
7844;DHT22;3967;48.702;9.326;2022-08-20T04:39:22;18.90;99.90
7844;DHT22;3967;48.702;9.326;2022-08-20T04:41:49;18.90;99.90
7844;DHT22;3967;48.702;9.326;2022-08-20T04:44:16;19.00;99.90
7844;DHT22;3967;48.702;9.326;2022-08-20T04:46:42;19.00;99.90
7844;DHT22;3967;48.702;9.326;2022-08-20T04:49:10;19.00;99.90
7844;DHT22;3967;48.702;9.326;2022-08-20T04:51:37;19.00;99.90
7844;DHT22;3967;48.702;9.326;2022-08-20T04:54:05;19.00;99.90
7844;DHT22;3967;48.702;9.326;2022-08-20T04:56:33;18.90;99.90
7844;DHT22;3967;48.702;9.326;2022-08-20T04:59:04;18.90;99.90
7844;DHT22;3967;48.702;9.326;2022-08-20T05:01:32;19.00;99.90
7844;DHT22;3967;48.702;9.326;2022-08-20T05:03:59;19.00;99.90
7844;DHT22;3967;48.702;9.326;2022-08-20T05:06:28;18.90;99.90
7844;DHT22;3967;48.702;9.326;2022-08-20T05:08:57;19.00;99.90
7844;DHT22;3967;48.702;9.326;2022-08-20T05:11:24;19.10;99.90
7844;DHT22;3967;48.702;9.326;2022-08-20T05:14:01;19.10;99.90
7844;DHT22;3967;48.702;9.326;2022-08-20T05:16:27;19.20;99.90
7844;DHT22;3967;48.702;9.326;2022-08-20T05:18:55;19.20;99.90
7844;DHT22;3967;48.702;9.326;2022-08-20T05:21:21;19.20;99.90
7844;DHT22;3967;48.702;9.326;2022-08-20T05:23:48;19.20;99.90
7844;DHT22;3967;48.702;9.326;2022-08-20T05:26:15;19.20;99.90
7844;DHT22;3967;48.702;9.326;2022-08-20T05:28:42;19.20;99.90
7844;DHT22;3967;48.702;9.326;2022-08-20T05:31:27;19.30;99.90
7844;DHT22;3967;48.702;9.326;2022-08-20T05:34:03;19.30;99.90
7844;DHT22;3967;48.702;9.326;2022-08-20T05:36:36;19.30;99.90
7844;DHT22;3967;48.702;9.326;2022-08-20T05:39:04;19.10;99.90
7844;DHT22;3967;48.702;9.326;2022-08-20T05:41:31;19.20;99.90
7844;DHT22;3967;48.702;9.326;2022-08-20T05:43:58;19.20;99.90
7844;DHT22;3967;48.702;9.326;2022-08-20T05:46:31;19.10;99.90
7844;DHT22;3967;48.702;9.326;2022-08-20T05:48:58;19.00;99.90
7844;DHT22;3967;48.702;9.326;2022-08-20T05:51:27;18.90;99.90
7844;DHT22;3967;48.702;9.326;2022-08-20T05:53:55;19.00;99.90
7844;DHT22;3967;48.702;9.326;2022-08-20T05:56:25;19.10;99.90
7844;DHT22;3967;48.702;9.326;2022-08-20T05:58:53;19.20;99.90
7844;DHT22;3967;48.702;9.326;2022-08-20T06:01:20;19.20;99.90
7844;DHT22;3967;48.702;9.326;2022-08-20T06:03:47;19.20;99.90
7844;DHT22;3967;48.702;9.326;2022-08-20T06:06:32;19.30;99.90
7844;DHT22;3967;48.702;9.326;2022-08-20T06:09:14;19.30;99.90
7844;DHT22;3967;48.702;9.326;2022-08-20T06:11:41;19.30;99.90
7844;DHT22;3967;48.702;9.326;2022-08-20T06:14:08;19.40;99.90
7844;DHT22;3967;48.702;9.326;2022-08-20T06:16:35;19.40;99.90
7844;DHT22;3967;48.702;9.326;2022-08-20T06:19:03;19.40;99.90
7844;DHT22;3967;48.702;9.326;2022-08-20T06:21:31;19.50;99.90
7844;DHT22;3967;48.702;9.326;2022-08-20T06:23:57;19.40;99.90
7844;DHT22;3967;48.702;9.326;2022-08-20T06:26:27;19.40;99.90
7844;DHT22;3967;48.702;9.326;2022-08-20T06:28:57;19.40;99.90
7844;DHT22;3967;48.702;9.326;2022-08-20T06:31:24;19.40;99.90
7844;DHT22;3967;48.702;9.326;2022-08-20T06:33:53;19.50;99.90
7844;DHT22;3967;48.702;9.326;2022-08-20T06:36:20;19.50;99.90
7844;DHT22;3967;48.702;9.326;2022-08-20T06:38:46;19.50;99.90
7844;DHT22;3967;48.702;9.326;2022-08-20T06:41:13;19.50;99.90
7844;DHT22;3967;48.702;9.326;2022-08-20T06:43:40;19.60;99.90
7844;DHT22;3967;48.702;9.326;2022-08-20T06:46:07;19.70;99.90
7844;DHT22;3967;48.702;9.326;2022-08-20T06:48:34;19.80;99.90
7844;DHT22;3967;48.702;9.326;2022-08-20T06:51:00;19.80;99.90
7844;DHT22;3967;48.702;9.326;2022-08-20T06:53:27;19.90;99.90
7844;DHT22;3967;48.702;9.326;2022-08-20T06:55:56;20.00;99.90
7844;DHT22;3967;48.702;9.326;2022-08-20T06:58:26;20.00;99.90
7844;DHT22;3967;48.702;9.326;2022-08-20T07:01:08;20.10;99.90
7844;DHT22;3967;48.702;9.326;2022-08-20T07:03:38;20.10;99.90
7844;DHT22;3967;48.702;9.326;2022-08-20T07:06:19;20.20;99.90
7844;DHT22;3967;48.702;9.326;2022-08-20T07:08:46;20.40;99.90
7844;DHT22;3967;48.702;9.326;2022-08-20T07:11:13;20.50;99.90
7844;DHT22;3967;48.702;9.326;2022-08-20T07:13:39;20.60;99.90
7844;DHT22;3967;48.702;9.326;2022-08-20T07:16:07;20.60;99.90
7844;DHT22;3967;48.702;9.326;2022-08-20T07:18:34;20.70;99.90
7844;DHT22;3967;48.702;9.326;2022-08-20T07:21:01;20.80;99.90
7844;DHT22;3967;48.702;9.326;2022-08-20T07:23:28;20.80;99.90
7844;DHT22;3967;48.702;9.326;2022-08-20T07:25:57;20.80;99.90
7844;DHT22;3967;48.702;9.326;2022-08-20T07:28:25;20.90;99.90
7844;DHT22;3967;48.702;9.326;2022-08-20T07:30:57;20.90;99.90
7844;DHT22;3967;48.702;9.326;2022-08-20T07:33:46;21.00;99.90
7844;DHT22;3967;48.702;9.326;2022-08-20T07:36:16;21.10;99.90
7844;DHT22;3967;48.702;9.326;2022-08-20T07:38:43;21.10;99.90
7844;DHT22;3967;48.702;9.326;2022-08-20T07:41:12;21.20;99.90
7844;DHT22;3967;48.702;9.326;2022-08-20T07:43:42;21.20;99.90
7844;DHT22;3967;48.702;9.326;2022-08-20T07:46:12;21.20;99.90
7844;DHT22;3967;48.702;9.326;2022-08-20T07:48:41;21.40;99.90
7844;DHT22;3967;48.702;9.326;2022-08-20T07:51:13;21.40;99.90
7844;DHT22;3967;48.702;9.326;2022-08-20T07:53:43;21.40;99.90
7844;DHT22;3967;48.702;9.326;2022-08-20T07:56:14;21.40;99.90
7844;DHT22;3967;48.702;9.326;2022-08-20T07:58:45;21.40;99.90
7844;DHT22;3967;48.702;9.326;2022-08-20T08:01:21;21.60;99.90
7844;DHT22;3967;48.702;9.326;2022-08-20T08:03:50;21.60;99.90
7844;DHT22;3967;48.702;9.326;2022-08-20T08:06:21;21.70;99.90
7844;DHT22;3967;48.702;9.326;2022-08-20T08:09:08;21.60;99.90
7844;DHT22;3967;48.702;9.326;2022-08-20T08:11:39;21.60;99.90
7844;DHT22;3967;48.702;9.326;2022-08-20T08:14:12;21.80;99.90
7844;DHT22;3967;48.702;9.326;2022-08-20T08:16:39;21.70;99.90
7844;DHT22;3967;48.702;9.326;2022-08-20T08:19:07;21.70;99.90
7844;DHT22;3967;48.702;9.326;2022-08-20T08:21:35;21.70;99.90
7844;DHT22;3967;48.702;9.326;2022-08-20T08:24:02;21.70;99.90
7844;DHT22;3967;48.702;9.326;2022-08-20T08:26:28;21.80;99.90
7844;DHT22;3967;48.702;9.326;2022-08-20T08:28:56;21.90;99.90
7844;DHT22;3967;48.702;9.326;2022-08-20T08:31:24;22.00;99.90
7844;DHT22;3967;48.702;9.326;2022-08-20T08:33:51;22.10;99.90
7844;DHT22;3967;48.702;9.326;2022-08-20T08:36:18;22.10;99.90
7844;DHT22;3967;48.702;9.326;2022-08-20T08:38:45;22.10;99.90
7844;DHT22;3967;48.702;9.326;2022-08-20T08:43:46;22.20;99.90
7844;DHT22;3967;48.702;9.326;2022-08-20T08:46:19;22.30;99.90
7844;DHT22;3967;48.702;9.326;2022-08-20T08:48:51;22.40;99.90
7844;DHT22;3967;48.702;9.326;2022-08-20T08:51:44;22.30;99.90
7844;DHT22;3967;48.702;9.326;2022-08-20T08:54:16;22.40;99.90
7844;DHT22;3967;48.702;9.326;2022-08-20T08:56:44;22.60;99.90
7844;DHT22;3967;48.702;9.326;2022-08-20T08:59:17;22.80;99.90
7844;DHT22;3967;48.702;9.326;2022-08-20T09:01:47;23.10;99.90
7844;DHT22;3967;48.702;9.326;2022-08-20T09:04:30;23.10;97.80
7844;DHT22;3967;48.702;9.326;2022-08-20T09:06:58;23.10;98.10
7844;DHT22;3967;48.702;9.326;2022-08-20T09:09:30;22.90;97.90
7844;DHT22;3967;48.702;9.326;2022-08-20T09:12:07;22.80;97.90
7844;DHT22;3967;48.702;9.326;2022-08-20T09:14:36;23.10;99.50
7844;DHT22;3967;48.702;9.326;2022-08-20T09:17:03;23.40;98.20
7844;DHT22;3967;48.702;9.326;2022-08-20T09:19:30;23.60;95.90
7844;DHT22;3967;48.702;9.326;2022-08-20T09:21:57;23.60;96.30
7844;DHT22;3967;48.702;9.326;2022-08-20T09:24:24;23.90;94.80
7844;DHT22;3967;48.702;9.326;2022-08-20T09:26:51;23.90;95.00
7844;DHT22;3967;48.702;9.326;2022-08-20T09:29:18;24.10;94.50
7844;DHT22;3967;48.702;9.326;2022-08-20T09:31:46;24.30;94.70
7844;DHT22;3967;48.702;9.326;2022-08-20T09:34:14;24.00;97.40
7844;DHT22;3967;48.702;9.326;2022-08-20T09:36:40;23.70;99.90
7844;DHT22;3967;48.702;9.326;2022-08-20T09:39:09;23.20;99.90
7844;DHT22;3967;48.702;9.326;2022-08-20T09:41:37;22.70;99.90
7844;DHT22;3967;48.702;9.326;2022-08-20T09:44:04;22.60;99.90
7844;DHT22;3967;48.702;9.326;2022-08-20T09:46:31;22.50;99.90
7844;DHT22;3967;48.702;9.326;2022-08-20T09:48:58;22.50;99.90
7844;DHT22;3967;48.702;9.326;2022-08-20T09:51:24;22.50;99.90
7844;DHT22;3967;48.702;9.326;2022-08-20T09:53:51;22.80;99.90
7844;DHT22;3967;48.702;9.326;2022-08-20T09:56:18;22.80;99.90
7844;DHT22;3967;48.702;9.326;2022-08-20T09:58:49;22.80;99.90
7844;DHT22;3967;48.702;9.326;2022-08-20T10:01:18;22.80;99.90
7844;DHT22;3967;48.702;9.326;2022-08-20T10:03:46;22.60;99.90
7844;DHT22;3967;48.702;9.326;2022-08-20T10:06:15;22.60;99.90
7844;DHT22;3967;48.702;9.326;2022-08-20T10:08:43;22.60;99.90
7844;DHT22;3967;48.702;9.326;2022-08-20T10:11:10;22.70;99.90
7844;DHT22;3967;48.702;9.326;2022-08-20T10:13:37;22.80;99.90
7844;DHT22;3967;48.702;9.326;2022-08-20T10:16:04;22.80;99.90
7844;DHT22;3967;48.702;9.326;2022-08-20T10:18:30;22.90;99.90
7844;DHT22;3967;48.702;9.326;2022-08-20T10:20:57;22.60;99.90
7844;DHT22;3967;48.702;9.326;2022-08-20T10:23:24;22.40;99.90
7844;DHT22;3967;48.702;9.326;2022-08-20T10:25:51;22.60;99.90
7844;DHT22;3967;48.702;9.326;2022-08-20T10:28:17;22.60;99.90
7844;DHT22;3967;48.702;9.326;2022-08-20T10:30:44;22.60;99.90
7844;DHT22;3967;48.702;9.326;2022-08-20T10:33:12;22.70;99.90
7844;DHT22;3967;48.702;9.326;2022-08-20T10:35:39;22.70;99.90
7844;DHT22;3967;48.702;9.326;2022-08-20T10:38:05;22.70;99.90
7844;DHT22;3967;48.702;9.326;2022-08-20T10:40:32;22.50;99.90
7844;DHT22;3967;48.702;9.326;2022-08-20T10:42:59;22.40;99.90
7844;DHT22;3967;48.702;9.326;2022-08-20T10:45:26;22.40;99.90
7844;DHT22;3967;48.702;9.326;2022-08-20T10:47:53;22.40;99.90
7844;DHT22;3967;48.702;9.326;2022-08-20T10:50:20;22.50;99.90
7844;DHT22;3967;48.702;9.326;2022-08-20T10:52:46;22.30;99.90
7844;DHT22;3967;48.702;9.326;2022-08-20T10:55:13;22.50;99.90
7844;DHT22;3967;48.702;9.326;2022-08-20T10:57:41;22.60;99.90
7844;DHT22;3967;48.702;9.326;2022-08-20T11:00:14;22.60;99.90
7844;DHT22;3967;48.702;9.326;2022-08-20T11:02:41;22.60;99.90
7844;DHT22;3967;48.702;9.326;2022-08-20T11:05:08;22.40;99.90
7844;DHT22;3967;48.702;9.326;2022-08-20T11:07:37;22.40;99.90
7844;DHT22;3967;48.702;9.326;2022-08-20T11:10:25;22.50;99.90
7844;DHT22;3967;48.702;9.326;2022-08-20T11:12:53;22.80;99.90
7844;DHT22;3967;48.702;9.326;2022-08-20T11:15:20;22.80;99.90
7844;DHT22;3967;48.702;9.326;2022-08-20T11:17:46;22.90;99.90
7844;DHT22;3967;48.702;9.326;2022-08-20T11:20:16;22.80;99.90
7844;DHT22;3967;48.702;9.326;2022-08-20T11:22:43;22.60;99.90
7844;DHT22;3967;48.702;9.326;2022-08-20T11:25:10;22.30;99.90
7844;DHT22;3967;48.702;9.326;2022-08-20T11:27:39;22.30;99.90
7844;DHT22;3967;48.702;9.326;2022-08-20T11:30:09;21.90;99.90
7844;DHT22;3967;48.702;9.326;2022-08-20T11:32:37;21.80;99.90
7844;DHT22;3967;48.702;9.326;2022-08-20T11:35:05;22.10;99.90
7844;DHT22;3967;48.702;9.326;2022-08-20T11:37:51;22.20;99.90
7844;DHT22;3967;48.702;9.326;2022-08-20T11:40:18;22.40;99.90
7844;DHT22;3967;48.702;9.326;2022-08-20T11:42:45;22.50;99.90
7844;DHT22;3967;48.702;9.326;2022-08-20T11:45:33;22.50;99.90
7844;DHT22;3967;48.702;9.326;2022-08-20T11:48:03;22.50;99.90
7844;DHT22;3967;48.702;9.326;2022-08-20T11:50:30;22.60;99.90
7844;DHT22;3967;48.702;9.326;2022-08-20T11:52:57;22.70;99.90
7844;DHT22;3967;48.702;9.326;2022-08-20T11:55:27;22.70;99.90
7844;DHT22;3967;48.702;9.326;2022-08-20T11:57:56;22.70;99.90
7844;DHT22;3967;48.702;9.326;2022-08-20T12:00:27;22.50;99.90
7844;DHT22;3967;48.702;9.326;2022-08-20T12:03:00;22.40;99.90
7844;DHT22;3967;48.702;9.326;2022-08-20T12:05:27;22.30;99.90
7844;DHT22;3967;48.702;9.326;2022-08-20T12:07:56;22.30;99.90
7844;DHT22;3967;48.702;9.326;2022-08-20T12:10:23;22.10;99.90
7844;DHT22;3967;48.702;9.326;2022-08-20T12:12:52;22.10;99.90
7844;DHT22;3967;48.702;9.326;2022-08-20T12:15:19;22.20;99.90
7844;DHT22;3967;48.702;9.326;2022-08-20T12:17:46;22.30;99.90
7844;DHT22;3967;48.702;9.326;2022-08-20T12:20:13;22.30;99.90
7844;DHT22;3967;48.702;9.326;2022-08-20T12:22:40;22.30;99.90
7844;DHT22;3967;48.702;9.326;2022-08-20T12:25:08;22.40;99.90
7844;DHT22;3967;48.702;9.326;2022-08-20T12:27:36;22.30;99.90
7844;DHT22;3967;48.702;9.326;2022-08-20T12:30:15;22.30;99.90
7844;DHT22;3967;48.702;9.326;2022-08-20T12:32:43;22.20;99.90
7844;DHT22;3967;48.702;9.326;2022-08-20T12:35:11;22.20;99.90
7844;DHT22;3967;48.702;9.326;2022-08-20T12:37:38;22.20;99.90
7844;DHT22;3967;48.702;9.326;2022-08-20T12:40:09;22.40;99.90
7844;DHT22;3967;48.702;9.326;2022-08-20T12:42:37;22.60;99.90
7844;DHT22;3967;48.702;9.326;2022-08-20T12:45:05;22.70;99.90
7844;DHT22;3967;48.702;9.326;2022-08-20T12:47:34;22.70;99.90
7844;DHT22;3967;48.702;9.326;2022-08-20T12:52:32;22.80;99.90
7844;DHT22;3967;48.702;9.326;2022-08-20T12:55:00;22.90;99.90
7844;DHT22;3967;48.702;9.326;2022-08-20T12:57:39;22.90;99.90
7844;DHT22;3967;48.702;9.326;2022-08-20T13:02:51;23.10;99.90
7844;DHT22;3967;48.702;9.326;2022-08-20T13:05:19;23.30;99.90
7844;DHT22;3967;48.702;9.326;2022-08-20T13:07:46;23.30;99.90
7844;DHT22;3967;48.702;9.326;2022-08-20T13:10:28;23.50;99.90
7844;DHT22;3967;48.702;9.326;2022-08-20T13:12:56;23.60;99.90
7844;DHT22;3967;48.702;9.326;2022-08-20T13:15:24;23.50;99.90
7844;DHT22;3967;48.702;9.326;2022-08-20T13:17:58;23.50;99.90
7844;DHT22;3967;48.702;9.326;2022-08-20T13:20:26;23.60;99.90
7844;DHT22;3967;48.702;9.326;2022-08-20T13:23:01;23.50;99.90
7844;DHT22;3967;48.702;9.326;2022-08-20T13:25:29;23.70;99.90
7844;DHT22;3967;48.702;9.326;2022-08-20T13:27:57;23.70;99.90
7844;DHT22;3967;48.702;9.326;2022-08-20T13:30:25;23.60;99.90
7844;DHT22;3967;48.702;9.326;2022-08-20T13:32:52;23.50;99.90
7844;DHT22;3967;48.702;9.326;2022-08-20T13:35:19;23.40;99.90
7844;DHT22;3967;48.702;9.326;2022-08-20T13:37:47;23.50;99.90
7844;DHT22;3967;48.702;9.326;2022-08-20T13:40:14;23.20;99.90
7844;DHT22;3967;48.702;9.326;2022-08-20T13:42:41;22.60;99.90
7844;DHT22;3967;48.702;9.326;2022-08-20T13:45:08;22.20;99.90
7844;DHT22;3967;48.702;9.326;2022-08-20T13:47:37;21.80;99.90
7844;DHT22;3967;48.702;9.326;2022-08-20T13:52:37;21.50;99.90
7844;DHT22;3967;48.702;9.326;2022-08-20T13:55:06;21.60;99.90
7844;DHT22;3967;48.702;9.326;2022-08-20T13:57:34;21.70;99.90
7844;DHT22;3967;48.702;9.326;2022-08-20T14:00:07;21.70;99.90
7844;DHT22;3967;48.702;9.326;2022-08-20T14:02:39;22.00;99.90
7844;DHT22;3967;48.702;9.326;2022-08-20T14:05:07;22.00;99.90
7844;DHT22;3967;48.702;9.326;2022-08-20T14:07:36;22.00;99.90
7844;DHT22;3967;48.702;9.326;2022-08-20T14:10:06;22.10;99.90
7844;DHT22;3967;48.702;9.326;2022-08-20T14:12:34;22.10;99.90
7844;DHT22;3967;48.702;9.326;2022-08-20T14:15:01;22.30;99.90
7844;DHT22;3967;48.702;9.326;2022-08-20T14:17:31;22.30;99.90
7844;DHT22;3967;48.702;9.326;2022-08-20T14:20:08;22.30;99.90
7844;DHT22;3967;48.702;9.326;2022-08-20T14:22:36;22.40;99.90
7844;DHT22;3967;48.702;9.326;2022-08-20T14:25:08;22.50;99.90
7844;DHT22;3967;48.702;9.326;2022-08-20T14:27:35;22.40;99.90
7844;DHT22;3967;48.702;9.326;2022-08-20T14:30:07;22.50;99.90
7844;DHT22;3967;48.702;9.326;2022-08-20T14:32:35;22.40;99.90
7844;DHT22;3967;48.702;9.326;2022-08-20T14:35:02;22.40;99.90
7844;DHT22;3967;48.702;9.326;2022-08-20T14:37:37;22.70;99.90
7844;DHT22;3967;48.702;9.326;2022-08-20T14:40:08;22.70;99.90
7844;DHT22;3967;48.702;9.326;2022-08-20T14:42:36;22.80;99.90
7844;DHT22;3967;48.702;9.326;2022-08-20T14:45:04;23.00;99.90
7844;DHT22;3967;48.702;9.326;2022-08-20T14:47:47;23.00;99.90
7844;DHT22;3967;48.702;9.326;2022-08-20T14:50:28;22.90;99.90
7844;DHT22;3967;48.702;9.326;2022-08-20T14:52:56;23.00;99.90
7844;DHT22;3967;48.702;9.326;2022-08-20T14:55:29;23.00;99.90
7844;DHT22;3967;48.702;9.326;2022-08-20T14:57:56;22.90;99.90
7844;DHT22;3967;48.702;9.326;2022-08-20T15:00:29;23.00;99.90
7844;DHT22;3967;48.702;9.326;2022-08-20T15:02:59;23.10;99.90
7844;DHT22;3967;48.702;9.326;2022-08-20T15:05:26;23.20;99.90
7844;DHT22;3967;48.702;9.326;2022-08-20T15:07:55;23.20;99.90
7844;DHT22;3967;48.702;9.326;2022-08-20T15:10:26;23.20;99.90
7844;DHT22;3967;48.702;9.326;2022-08-20T15:12:53;23.20;99.90
7844;DHT22;3967;48.702;9.326;2022-08-20T15:15:20;23.20;99.90
7844;DHT22;3967;48.702;9.326;2022-08-20T15:17:55;23.10;99.90
7844;DHT22;3967;48.702;9.326;2022-08-20T15:20:26;23.00;99.90
7844;DHT22;3967;48.702;9.326;2022-08-20T15:22:53;23.00;99.90
7844;DHT22;3967;48.702;9.326;2022-08-20T15:25:24;23.30;99.90
7844;DHT22;3967;48.702;9.326;2022-08-20T15:27:54;23.20;99.90
7844;DHT22;3967;48.702;9.326;2022-08-20T15:30:28;23.30;99.90
7844;DHT22;3967;48.702;9.326;2022-08-20T15:32:56;23.50;99.90
7844;DHT22;3967;48.702;9.326;2022-08-20T15:35:25;23.30;99.90
7844;DHT22;3967;48.702;9.326;2022-08-20T15:37:56;23.20;99.90
7844;DHT22;3967;48.702;9.326;2022-08-20T15:40:24;23.20;99.90
7844;DHT22;3967;48.702;9.326;2022-08-20T15:42:57;23.30;99.90
7844;DHT22;3967;48.702;9.326;2022-08-20T15:45:25;23.20;99.90
7844;DHT22;3967;48.702;9.326;2022-08-20T15:48:11;23.20;99.90
7844;DHT22;3967;48.702;9.326;2022-08-20T15:54:07;23.40;99.90
7844;DHT22;3967;48.702;9.326;2022-08-20T15:56:12;23.50;99.90
7844;DHT22;3967;48.702;9.326;2022-08-20T16:06:49;23.30;99.90
7844;DHT22;3967;48.702;9.326;2022-08-20T16:12:09;23.60;99.90
7844;DHT22;3967;48.702;9.326;2022-08-20T16:14:42;23.50;99.90
7844;DHT22;3967;48.702;9.326;2022-08-20T16:17:15;23.50;99.90
7844;DHT22;3967;48.702;9.326;2022-08-20T16:22:19;23.60;99.90
7844;DHT22;3967;48.702;9.326;2022-08-20T16:24:46;23.60;99.90
7844;DHT22;3967;48.702;9.326;2022-08-20T16:30:07;23.80;99.90
7844;DHT22;3967;48.702;9.326;2022-08-20T16:32:44;23.80;99.90
7844;DHT22;3967;48.702;9.326;2022-08-20T16:35:37;23.80;99.90
7844;DHT22;3967;48.702;9.326;2022-08-20T16:38:37;23.80;99.90
7844;DHT22;3967;48.702;9.326;2022-08-20T16:43:55;23.90;99.50
7844;DHT22;3967;48.702;9.326;2022-08-20T16:46:26;23.70;99.70
7844;DHT22;3967;48.702;9.326;2022-08-20T16:49:01;23.90;99.40
7844;DHT22;3967;48.702;9.326;2022-08-20T16:52:01;23.90;98.90
7844;DHT22;3967;48.702;9.326;2022-08-20T16:54:28;24.00;99.20
7844;DHT22;3967;48.702;9.326;2022-08-20T16:57:03;24.00;98.80
7844;DHT22;3967;48.702;9.326;2022-08-20T16:59:31;23.90;98.30